Delta Virtual Airport Information Service

Amarillo Rick Husband International Airport

ICAO: KAMA Country: United States
Latitude: 35.2194 Longitude: -101.705
Latest Arrival : DAC314 (KSLC-KAMA) Latest Departure : GTI9013 (KAMA-KCVG)


WX CaptureLIVE
Data provided by noaa.gov | Fetched at 09:04:43

METAR : KAMA 301453Z 27006KT 10SM CLR 01/M08 A3041 RMK AO2 SLP311 T00061083 58009

TAF : KAMA 301130Z 3012/0112 26011KT P6SM SKC FM301900 22011KT P6SM SKC


Runway Data for KAMA
Data provided by openaviationdata.com

Runway ID Mag Var Hdg Length Elevation Surface ILS Freq ILS Id ILS Slope
4 8 37° 13502 ft 3606 ft Concrete 110.3 IAMA 3
13 8 129° 7903 ft 3606 ft Concrete -- -- --
22 8 217° 13502 ft 3606 ft Concrete 111.1 IRIQ 3
31 8 309° 7903 ft 3606 ft Concrete -- -- --

Amarillo Rick Husband International Airport, United States
Use only for reference purposes



Not for navigational purposes.